Share

Tateno, Japan

Hyakuri Aero (RJAH) Elev 115 ft | 36.18 °N, 140.41 °E | Change Station

Current weather conditions updated 15 minutes ago

Light Rain
Light Rain
43 °F
Feels Like 36 °F
N
13
Wind Variable Wind from NNE
Sunrise 5:01 AM
Sunset 6:16 PM
Moon Waning Gibbous

Tomorrow is forecast to be nearly the same temperature as today.

Pressure 30.21 in
Visibility 6.2 miles
Clouds Scattered Clouds 2500 ft
Mostly Cloudy 6000 ft
Windchill 36 °F
Dew Point 32 °F
Humidity 66%
Rainfall 0.00 in
Snow Depth Not available.
UV 0 out of 16
Pollen Not available.
Air Quality Not available.
Flu Activity Not available.
METAR RJAH 191400Z 03011KT 9999 -RA SCT025 BKN060 06/00 Q1023

More Conditions Fewer Conditions

Pressure 30.21 in
Visibility 6.2 miles
Clouds Scattered Clouds 2500 ft
Mostly Cloudy 6000 ft
Windchill 36 °F
Dew Point 32 °F
Humidity 66%
Rainfall 0.00 in
Snow Depth Not available.
UV 0 out of 16
Pollen Not available.
Air Quality Not available.
Flu Activity Not available.
METAR RJAH 191400Z 03011KT 9999 -RA SCT025 BKN060 06/00 Q1023

More Conditions Fewer Conditions

10-Day Weather Forecast

Almanac

Astronomy

Apr. 19, 2014 Rise Set
Actual Time 5:01 AM JST 6:16 PM JST
Civil Twilight 4:35 AM JST 6:42 PM JST
Nautical Twilight 4:03 AM JST 7:14 PM JST
Astronomical Twilight 3:30 AM JST 7:47 PM JST
Moon 10:17 PM JST 7:47 AM JST
Length of Visible Light 14h 07m
Length of Day
13h 14m
Tomorrow will be 2m 7s longer.
Waning Gibbous, 79% of the Moon is Illuminated
Today
Waning Gibbous
Apr 22
Last Quarter
Apr 29
New
May 6
First Quarter
May 14
Full

Yesterday's Extremes

Country Highs Country Lows

Community

  • A Glorious Morning
    A Glorious Morning
  • Bleeding Hearts
    Bleeding Hearts
  • Sunset Silhouettes
    Sunset Silhouettes
  • FL sunset Perico Isle
    FL sunset Perico Isle
  • La Conner
    La Conner

WunderPhotos

Upload Photos

1,702,735 photos uploaded!

Nearby

Snow Depth

Not available.

Coastal Water Temperatures

Place Temperature
No Stations Reporting

Earthquake Activity

City Distance Mag. Time & Date
No recent earthquake activity has been reported nearby.
Minimum magnitude displayed is 2.5.

Nearby Weather Stations

Station Location Temp. Windchill Dew Point Humidity Wind Precip. Elev Updated Type
Funabashi, Funabashi 46.5 °F 46 °F 40 °F 77% NW  at  2.0 mph 0.00 in / hr 92 ft 11:15 PM JST Rapid Fire

Show More Stations Show Fewer Stations

What do you think?

We're not finished. Please let us know what you like, what you don't like, and what you are still missing.